Chat, Texas
Current Conditions -  °F | °C
As of 11:15 AM on Saturday 20 Dec 2014 (Local Time) from KINJ Reporting Station
Overcast Overcast  
Wind Chill: 47°   Ceiling: 1000
Heat Index: 49°   Visibility: 7mi
Dew Point: 44°   Wind: 5mph
Humidity: 85%   Direction: 30°NNE
Pressure: 30.26"   Gusts: NA
Location:  32.0499°N, 97.1039°W
Report Text: KINJ 201715Z AUTO 03004KT 7SM OVC010 09/07 A3026 RMK AO2 T00920068
Loading
Personal Weather Stations






























Interactive Weather Map New forecast layout! Learn more

10-Day Weather Forecast

Advertisements
Track Severe Weather on mobile